createdAt,value
2023-04-17T00:00:29.422Z,10.81
2023-04-17T00:01:29.383Z,10.79
2023-04-17T00:02:29.467Z,10.74
2023-04-17T00:03:29.407Z,10.87
2023-04-17T00:04:29.396Z,10.89
2023-04-17T00:05:29.264Z,10.82
2023-04-17T00:06:29.197Z,10.84
2023-04-17T00:07:29.168Z,10.72
2023-04-17T00:08:29.129Z,10.75
2023-04-17T00:09:29.089Z,10.79
2023-04-17T00:10:29.064Z,10.82
2023-04-17T00:11:29.036Z,10.78
2023-04-17T00:12:28.987Z,10.81
2023-04-17T00:13:28.950Z,10.92
2023-04-17T00:14:28.915Z,10.90
2023-04-17T00:15:28.872Z,10.89
2023-04-17T00:16:28.857Z,10.78
2023-04-17T00:17:28.811Z,10.82
2023-04-17T00:18:28.769Z,10.78
2023-04-17T00:19:28.733Z,10.90
2023-04-17T00:20:28.699Z,10.90
2023-04-17T00:21:28.662Z,10.93
2023-04-17T00:22:28.630Z,11.08
2023-04-17T00:23:28.582Z,11.11
2023-04-17T00:24:28.559Z,11.08
2023-04-17T00:25:28.512Z,11.22
2023-04-17T00:26:28.479Z,11.02
2023-04-17T00:27:28.437Z,11.11
2023-04-17T00:28:28.413Z,10.76
2023-04-17T00:29:28.371Z,10.74
2023-04-17T00:30:28.334Z,10.96
2023-04-17T00:31:28.309Z,10.99
2023-04-17T00:32:28.324Z,10.84
2023-04-17T00:33:28.239Z,10.97
2023-04-17T00:34:28.193Z,10.99
2023-04-17T00:35:28.163Z,10.99
2023-04-17T00:36:28.119Z,11.04
2023-04-17T00:37:28.096Z,10.90
2023-04-17T00:38:28.049Z,10.90
2023-04-17T00:39:28.017Z,10.99
2023-04-17T00:40:27.979Z,11.04
2023-04-17T00:41:27.961Z,10.97
2023-04-17T00:42:27.906Z,11.04
2023-04-17T00:43:27.873Z,11.05
2023-04-17T00:44:27.840Z,10.93
2023-04-17T00:45:27.810Z,11.12
2023-04-17T00:46:27.761Z,11.10
2023-04-17T00:47:27.760Z,11.18
2023-04-17T00:48:27.690Z,11.17
2023-04-17T00:49:27.669Z,11.17
2023-04-17T00:50:27.626Z,11.12
2023-04-17T00:51:27.587Z,11.19
2023-04-17T00:52:27.550Z,11.19
2023-04-17T00:53:27.518Z,11.15
2023-04-17T00:54:27.499Z,11.22
2023-04-17T00:55:27.457Z,11.33
2023-04-17T00:56:27.404Z,11.15
2023-04-17T00:57:27.371Z,11.12
2023-04-17T00:58:27.325Z,11.08
2023-04-17T00:59:27.296Z,11.15
2023-04-17T01:00:27.266Z,11.18
2023-04-17T01:01:27.330Z,11.18
2023-04-17T01:02:27.396Z,11.05
2023-04-17T01:03:27.270Z,11.07
2023-04-17T01:04:27.196Z,10.97
2023-04-17T01:05:27.081Z,11.15
2023-04-17T01:06:27.069Z,11.23
2023-04-17T01:07:27.009Z,11.18
2023-04-17T01:08:26.990Z,11.22
2023-04-17T01:09:26.935Z,11.26
2023-04-17T01:10:26.901Z,11.18
2023-04-17T01:11:26.862Z,11.22
2023-04-17T01:12:26.837Z,11.33
2023-04-17T01:13:26.815Z,11.10
2023-04-17T01:14:26.755Z,11.05
2023-04-17T01:15:26.724Z,10.92
2023-04-17T01:16:26.855Z,10.99
2023-04-17T01:17:26.669Z,11.11
2023-04-17T01:18:26.617Z,10.92
2023-04-17T01:19:26.584Z,10.93
2023-04-17T01:20:26.546Z,11.07
2023-04-17T01:21:26.504Z,11.25
2023-04-17T01:22:26.487Z,11.18
2023-04-17T01:23:26.444Z,11.19
2023-04-17T01:24:26.398Z,11.23
2023-04-17T01:25:26.371Z,11.26
2023-04-17T01:26:26.329Z,11.08
2023-04-17T01:27:26.295Z,10.94
2023-04-17T01:28:26.256Z,11.04
2023-04-17T01:29:26.218Z,10.97
2023-04-17T01:30:26.182Z,10.81
2023-04-17T01:31:26.255Z,10.81
2023-04-17T01:32:26.173Z,10.81
2023-04-17T01:33:26.080Z,10.86
2023-04-17T01:34:26.044Z,10.87
2023-04-17T01:35:26.007Z,10.75
2023-04-17T01:36:25.969Z,10.94
2023-04-17T01:37:25.935Z,10.76
2023-04-17T01:38:25.896Z,10.81
2023-04-17T01:39:25.865Z,10.89
2023-04-17T01:40:25.843Z,10.97
2023-04-17T01:41:25.792Z,11.12
2023-04-17T01:42:25.747Z,11.14
2023-04-17T01:43:25.716Z,11.11
2023-04-17T01:44:25.685Z,11.11
2023-04-17T01:45:25.645Z,11.14
2023-04-17T01:46:25.644Z,11.15
2023-04-17T01:47:25.649Z,11.14
2023-04-17T01:48:25.536Z,11.17
2023-04-17T01:49:25.503Z,11.30
2023-04-17T01:50:25.478Z,11.30
2023-04-17T01:51:25.434Z,11.11
2023-04-17T01:52:25.409Z,11.05
2023-04-17T01:53:25.358Z,11.07
2023-04-17T01:54:25.324Z,11.00
2023-04-17T01:55:25.382Z,10.97
2023-04-17T01:56:25.248Z,11.00
2023-04-17T01:57:25.227Z,11.04
2023-04-17T01:58:25.178Z,11.07
2023-04-17T01:59:25.140Z,11.15
2023-04-17T02:00:25.110Z,10.94
2023-04-17T02:01:25.086Z,10.86
2023-04-17T02:02:25.118Z,11.11
2023-04-17T02:03:25.156Z,11.19
2023-04-17T02:04:25.095Z,11.26
2023-04-17T02:05:24.928Z,11.23
2023-04-17T02:06:24.898Z,11.17
2023-04-17T02:07:24.864Z,10.94
2023-04-17T02:08:24.839Z,11.10
2023-04-17T02:09:24.785Z,10.93
2023-04-17T02:10:24.746Z,11.12
2023-04-17T02:11:24.711Z,11.17
2023-04-17T02:12:24.678Z,11.19
2023-04-17T02:13:24.642Z,11.08
2023-04-17T02:14:24.605Z,11.11
2023-04-17T02:15:24.569Z,10.92
2023-04-17T02:16:24.574Z,10.99
2023-04-17T02:17:24.544Z,11.12
2023-04-17T02:18:24.464Z,11.11
2023-04-17T02:19:24.448Z,11.19
2023-04-17T02:20:24.448Z,11.19
2023-04-17T02:21:24.353Z,11.19
2023-04-17T02:22:24.376Z,11.12
2023-04-17T02:23:24.275Z,11.14
2023-04-17T02:24:24.247Z,11.05
2023-04-17T02:25:24.213Z,11.19
2023-04-17T02:26:24.183Z,11.11
2023-04-17T02:27:24.278Z,11.15
2023-04-17T02:28:24.106Z,11.17
2023-04-17T02:29:24.066Z,11.08
2023-04-17T02:30:24.033Z,10.94
2023-04-17T02:31:24.048Z,10.97
2023-04-17T02:32:24.029Z,10.86
2023-04-17T02:33:23.929Z,10.89
2023-04-17T02:34:23.889Z,10.93
2023-04-17T02:35:23.852Z,10.81
2023-04-17T02:36:23.817Z,10.89
2023-04-17T02:37:23.778Z,11.02
2023-04-17T02:38:23.739Z,11.17
2023-04-17T02:39:23.730Z,11.12
2023-04-17T02:40:23.679Z,11.25
2023-04-17T02:41:23.648Z,11.23
2023-04-17T02:42:23.595Z,11.11
2023-04-17T02:43:23.567Z,11.11
2023-04-17T02:44:23.530Z,11.18
2023-04-17T02:45:23.494Z,11.17
2023-04-17T02:46:23.471Z,11.05
2023-04-17T02:47:23.432Z,10.99
2023-04-17T02:48:23.384Z,11.00
2023-04-17T02:49:23.354Z,11.18
2023-04-17T02:50:23.309Z,11.17
2023-04-17T02:51:23.275Z,11.19
2023-04-17T02:52:23.241Z,11.18
2023-04-17T02:53:23.212Z,11.12
2023-04-17T02:54:23.173Z,11.07
2023-04-17T02:55:23.135Z,11.05
2023-04-17T02:56:23.098Z,10.92
2023-04-17T02:57:23.099Z,10.93
2023-04-17T02:58:23.039Z,10.92
2023-04-17T02:59:22.996Z,10.90
2023-04-17T03:00:22.976Z,10.93
2023-04-17T03:01:22.956Z,10.92
2023-04-17T03:02:22.971Z,10.87
2023-04-17T03:03:23.000Z,10.92
2023-04-17T03:04:22.862Z,10.94
2023-04-17T03:05:22.787Z,11.10
2023-04-17T03:06:22.746Z,10.89
2023-04-17T03:07:22.708Z,10.86
2023-04-17T03:08:22.674Z,10.87
2023-04-17T03:09:22.659Z,10.90
2023-04-17T03:10:22.599Z,10.82
2023-04-17T03:11:22.563Z,10.92
2023-04-17T03:12:22.529Z,11.11
2023-04-17T03:13:22.491Z,11.08
2023-04-17T03:14:22.458Z,11.12
2023-04-17T03:15:22.424Z,11.22
2023-04-17T03:16:22.421Z,11.29
2023-04-17T03:17:22.418Z,11.19
2023-04-17T03:18:22.309Z,11.23
2023-04-17T03:19:22.274Z,10.99
2023-04-17T03:20:22.239Z,10.99
2023-04-17T03:21:22.233Z,10.97
2023-04-17T03:22:22.172Z,11.05
2023-04-17T03:23:22.134Z,11.07
2023-04-17T03:24:22.096Z,11.19
2023-04-17T03:25:22.066Z,11.05
2023-04-17T03:26:22.026Z,10.96
2023-04-17T03:27:21.987Z,10.94
2023-04-17T03:28:22.104Z,11.02
2023-04-17T03:29:21.916Z,11.12
2023-04-17T03:30:21.883Z,10.97
2023-04-17T03:31:24.207Z,10.92
2023-04-17T03:32:21.837Z,10.97
2023-04-17T03:33:21.774Z,11.12
2023-04-17T03:34:21.755Z,11.10
2023-04-17T03:35:21.707Z,11.10
2023-04-17T03:36:21.672Z,11.08
2023-04-17T03:37:21.629Z,11.22
2023-04-17T03:38:21.601Z,10.99
2023-04-17T03:39:21.561Z,11.17
2023-04-17T03:40:21.521Z,11.17
2023-04-17T03:41:21.500Z,11.11
2023-04-17T03:42:21.468Z,11.15
2023-04-17T03:43:21.423Z,11.12
2023-04-17T03:44:21.390Z,11.19
2023-04-17T03:45:21.342Z,11.11
2023-04-17T03:46:21.347Z,10.96
2023-04-17T03:47:21.298Z,11.02
2023-04-17T03:48:21.233Z,10.94
2023-04-17T03:49:21.200Z,11.10
2023-04-17T03:50:21.166Z,11.23
2023-04-17T03:51:21.134Z,11.23
2023-04-17T03:52:21.097Z,11.14
2023-04-17T03:53:21.065Z,11.15
2023-04-17T03:54:21.027Z,11.32
2023-04-17T03:55:20.994Z,11.18
2023-04-17T03:56:20.945Z,11.17
2023-04-17T03:57:20.916Z,11.19
2023-04-17T03:58:20.879Z,11.23
2023-04-17T03:59:20.834Z,11.18
2023-04-17T04:00:20.795Z,11.02
2023-04-17T04:01:20.777Z,10.87
2023-04-17T04:02:20.817Z,10.92
2023-04-17T04:03:20.844Z,10.92
2023-04-17T04:04:20.764Z,11.07
2023-04-17T04:05:20.682Z,11.15
2023-04-17T04:06:20.581Z,11.11
2023-04-17T04:07:20.546Z,11.17
2023-04-17T04:08:20.510Z,11.18
2023-04-17T04:09:20.470Z,11.19
2023-04-17T04:10:20.436Z,11.30
2023-04-17T04:11:20.403Z,11.26
2023-04-17T04:12:20.369Z,11.30
2023-04-17T04:13:20.332Z,11.37
2023-04-17T04:14:20.290Z,11.41
2023-04-17T04:15:20.256Z,11.44
2023-04-17T04:16:20.292Z,11.41
2023-04-17T04:17:20.201Z,11.25
2023-04-17T04:18:20.147Z,11.23
2023-04-17T04:19:20.119Z,11.33
2023-04-17T04:20:20.073Z,11.23
2023-04-17T04:21:20.041Z,11.10
2023-04-17T04:22:20.001Z,11.00
2023-04-17T04:23:19.968Z,11.00
2023-04-17T04:24:19.930Z,10.97
2023-04-17T04:25:19.910Z,10.94
2023-04-17T04:26:19.856Z,11.11
2023-04-17T04:27:19.829Z,11.05
2023-04-17T04:28:19.787Z,11.18
2023-04-17T04:29:19.777Z,11.18
2023-04-17T04:30:19.719Z,11.19
2023-04-17T04:31:19.768Z,11.15
2023-04-17T04:32:19.661Z,11.26
2023-04-17T04:33:19.613Z,11.30
2023-04-17T04:34:19.577Z,11.37
2023-04-17T04:35:19.550Z,11.40
2023-04-17T04:36:19.504Z,11.47
2023-04-17T04:37:19.474Z,11.54
2023-04-17T04:38:19.440Z,11.45
2023-04-17T04:39:19.397Z,11.32
2023-04-17T04:40:19.362Z,11.27
2023-04-17T04:41:19.330Z,11.27
2023-04-17T04:42:19.299Z,11.43
2023-04-17T04:43:22.207Z,11.37
2023-04-17T04:44:19.213Z,11.45
2023-04-17T04:45:19.185Z,11.44
2023-04-17T04:46:19.190Z,11.43
2023-04-17T04:47:19.140Z,11.44
2023-04-17T04:48:19.088Z,11.47
2023-04-17T04:49:19.066Z,11.41
2023-04-17T04:50:19.010Z,11.43
2023-04-17T04:51:19.115Z,11.55
2023-04-17T04:52:18.930Z,11.55
2023-04-17T04:53:18.895Z,11.50
2023-04-17T04:54:18.858Z,11.54
2023-04-17T04:55:18.822Z,11.52
2023-04-17T04:56:18.819Z,11.55
2023-04-17T04:57:18.753Z,11.57
2023-04-17T04:58:18.721Z,11.54
2023-04-17T04:59:18.680Z,11.60
2023-04-17T05:00:18.644Z,11.55
2023-04-17T05:01:18.709Z,11.59
2023-04-17T05:02:18.722Z,11.37
2023-04-17T05:03:18.709Z,11.43
2023-04-17T05:04:18.560Z,11.45
2023-04-17T05:05:18.473Z,11.47
2023-04-17T05:06:18.429Z,11.41
2023-04-17T05:07:18.409Z,11.43
2023-04-17T05:08:18.363Z,11.37
2023-04-17T05:09:18.621Z,11.23
2023-04-17T05:10:18.291Z,11.29
2023-04-17T05:11:18.252Z,11.36
2023-04-17T05:12:18.223Z,11.32
2023-04-17T05:13:18.186Z,11.44
2023-04-17T05:14:18.146Z,11.37
2023-04-17T05:15:18.107Z,11.36
2023-04-17T05:16:18.103Z,11.33
2023-04-17T05:17:18.068Z,11.45
2023-04-17T05:18:18.009Z,11.22
2023-04-17T05:19:17.967Z,11.23
2023-04-17T05:20:17.930Z,11.25
2023-04-17T05:21:17.907Z,11.40
2023-04-17T05:22:17.858Z,11.41
2023-04-17T05:23:17.825Z,11.40
2023-04-17T05:24:17.798Z,11.37
2023-04-17T05:25:17.756Z,11.45
2023-04-17T05:26:17.729Z,11.55
2023-04-17T05:27:17.682Z,11.44
2023-04-17T05:28:17.653Z,11.33
2023-04-17T05:29:17.606Z,11.41
2023-04-17T05:30:17.570Z,11.48
2023-04-17T05:31:17.568Z,11.19
2023-04-17T05:32:17.500Z,11.25
2023-04-17T05:33:17.473Z,11.30
2023-04-17T05:34:17.433Z,11.23
2023-04-17T05:35:17.394Z,11.11
2023-04-17T05:36:17.368Z,10.90
2023-04-17T05:37:17.324Z,11.08
2023-04-17T05:38:17.284Z,11.25
2023-04-17T05:39:17.250Z,11.27
2023-04-17T05:40:17.220Z,11.30
2023-04-17T05:41:17.172Z,11.36
2023-04-17T05:42:17.135Z,11.44
2023-04-17T05:43:17.145Z,11.37
2023-04-17T05:44:17.070Z,11.47
2023-04-17T05:45:17.028Z,11.44
2023-04-17T05:46:17.015Z,11.43
2023-04-17T05:47:16.987Z,11.22
2023-04-17T05:48:16.921Z,11.30
2023-04-17T05:49:16.892Z,11.45
2023-04-17T05:50:16.856Z,11.45
2023-04-17T05:51:16.815Z,11.25
2023-04-17T05:52:16.779Z,11.23
2023-04-17T05:53:16.746Z,11.32
2023-04-17T05:54:16.703Z,11.48
2023-04-17T05:55:16.683Z,11.43
2023-04-17T05:56:16.639Z,11.57
2023-04-17T05:57:16.598Z,11.55
2023-04-17T05:58:23.648Z,11.50
2023-04-17T05:59:16.536Z,11.52
2023-04-17T06:00:16.509Z,11.62
2023-04-17T06:01:16.459Z,11.62
2023-04-17T06:02:16.510Z,11.52
2023-04-17T06:03:18.299Z,11.59
2023-04-17T06:04:18.071Z,11.55
2023-04-17T06:05:16.406Z,11.50
2023-04-17T06:06:16.295Z,11.55
2023-04-17T06:07:16.257Z,11.63
2023-04-17T06:08:16.238Z,11.69
2023-04-17T06:09:16.177Z,11.60
2023-04-17T06:10:16.161Z,11.72
2023-04-17T06:11:16.101Z,11.75
2023-04-17T06:12:16.117Z,11.72
2023-04-17T06:13:16.037Z,11.65
2023-04-17T06:14:16.002Z,11.68
2023-04-17T06:15:15.954Z,11.70
2023-04-17T06:16:15.979Z,11.65
2023-04-17T06:17:16.001Z,11.75
2023-04-17T06:18:15.844Z,11.68
2023-04-17T06:19:15.811Z,11.69
2023-04-17T06:20:15.780Z,11.72
2023-04-17T06:21:15.758Z,11.72
2023-04-17T06:22:15.708Z,11.70
2023-04-17T06:23:15.708Z,11.54
2023-04-17T06:24:15.678Z,11.69
2023-04-17T06:25:15.644Z,11.68
2023-04-17T06:26:15.568Z,11.70
2023-04-17T06:27:15.532Z,11.75
2023-04-17T06:28:15.498Z,11.83
2023-04-17T06:29:15.516Z,11.73
2023-04-17T06:30:15.430Z,11.80
2023-04-17T06:31:15.439Z,11.78
2023-04-17T06:32:15.349Z,11.90
2023-04-17T06:33:15.324Z,11.80
2023-04-17T06:34:15.275Z,11.84
2023-04-17T06:35:15.249Z,11.86
2023-04-17T06:36:15.208Z,11.87
2023-04-17T06:37:15.174Z,11.87
2023-04-17T06:38:15.175Z,11.99
2023-04-17T06:39:15.101Z,11.99
2023-04-17T06:40:15.057Z,12.00
2023-04-17T06:41:15.028Z,11.86
2023-04-17T06:42:14.992Z,11.91
2023-04-17T06:43:14.954Z,11.86
2023-04-17T06:44:14.929Z,11.83
2023-04-17T06:45:14.885Z,11.91
2023-04-17T06:46:14.918Z,11.90
2023-04-17T06:47:14.831Z,11.88
2023-04-17T06:48:14.782Z,12.02
2023-04-17T06:49:14.995Z,11.97
2023-04-17T06:50:14.720Z,11.95
2023-04-17T06:51:14.670Z,11.80
2023-04-17T06:52:14.662Z,11.91
2023-04-17T06:53:14.609Z,11.97
2023-04-17T06:54:14.612Z,12.02
2023-04-17T06:55:14.524Z,12.03
2023-04-17T06:56:14.490Z,11.95
2023-04-17T06:57:14.458Z,11.97
2023-04-17T06:58:14.434Z,12.04
2023-04-17T06:59:14.410Z,12.09
2023-04-17T07:00:14.364Z,11.87
2023-04-17T07:01:14.339Z,11.81
2023-04-17T07:02:14.497Z,11.87
2023-04-17T07:03:14.302Z,11.95
2023-04-17T07:04:14.235Z,11.91
2023-04-17T07:05:14.208Z,11.90
2023-04-17T07:06:14.143Z,12.09
2023-04-17T07:07:14.099Z,12.00
2023-04-17T07:08:14.063Z,12.07
2023-04-17T07:09:14.142Z,12.10
2023-04-17T07:10:13.992Z,12.12
2023-04-17T07:11:13.952Z,12.00
2023-04-17T07:12:13.923Z,11.99
2023-04-17T07:13:13.881Z,12.02
2023-04-17T07:14:13.845Z,11.99
2023-04-17T07:15:13.826Z,12.04
2023-04-17T07:16:13.837Z,12.00
2023-04-17T07:17:13.735Z,12.06
2023-04-17T07:18:13.706Z,12.13
2023-04-17T07:19:14.060Z,12.20
2023-04-17T07:20:13.641Z,12.18
2023-04-17T07:21:13.602Z,12.04
2023-04-17T07:22:13.557Z,12.12
2023-04-17T07:23:13.524Z,12.18
2023-04-17T07:24:13.487Z,12.21
2023-04-17T07:25:13.448Z,12.22
2023-04-17T07:26:13.424Z,12.20
2023-04-17T07:27:13.388Z,12.24
2023-04-17T07:28:13.346Z,12.22
2023-04-17T07:29:13.642Z,12.36
2023-04-17T07:30:13.281Z,12.32
2023-04-17T07:31:13.482Z,12.43
2023-04-17T07:32:13.208Z,12.39
2023-04-17T07:33:13.195Z,12.43
2023-04-17T07:34:13.135Z,12.40
2023-04-17T07:35:13.099Z,12.39
2023-04-17T07:36:13.065Z,12.40
2023-04-17T07:37:13.024Z,12.36
2023-04-17T07:38:13.002Z,12.37
2023-04-17T07:39:13.109Z,12.35
2023-04-17T07:40:13.905Z,12.37
2023-04-17T07:41:12.911Z,12.37
2023-04-17T07:42:12.853Z,12.36
2023-04-17T07:43:12.817Z,12.37
2023-04-17T07:44:12.806Z,12.35
2023-04-17T07:45:12.746Z,12.37
2023-04-17T07:46:12.703Z,12.35
2023-04-17T07:47:12.828Z,12.36
2023-04-17T07:48:12.677Z,12.32
2023-04-17T07:49:12.768Z,12.20
2023-04-17T07:50:12.579Z,12.22
2023-04-17T07:51:12.530Z,12.31
2023-04-17T07:52:12.498Z,12.39
2023-04-17T07:53:12.477Z,12.39
2023-04-17T07:54:12.428Z,12.47
2023-04-17T07:55:12.406Z,12.58
2023-04-17T07:56:12.760Z,12.50
2023-04-17T07:57:12.328Z,12.53
2023-04-17T07:58:12.278Z,12.36
2023-04-17T07:59:12.337Z,12.49
2023-04-17T08:00:12.213Z,12.49
2023-04-17T08:01:12.209Z,12.50
2023-04-17T08:02:12.315Z,12.40
2023-04-17T08:03:12.284Z,12.46
2023-04-17T08:04:12.386Z,12.58
2023-04-17T08:05:12.125Z,12.53
2023-04-17T08:06:12.016Z,12.65
2023-04-17T08:07:11.971Z,12.62
2023-04-17T08:08:11.928Z,12.61
2023-04-17T08:09:12.038Z,12.64
2023-04-17T08:10:11.872Z,12.61
2023-04-17T08:11:11.824Z,12.58
2023-04-17T08:12:11.788Z,12.54
2023-04-17T08:13:11.752Z,12.65
2023-04-17T08:14:11.724Z,12.60
2023-04-17T08:15:11.696Z,12.61
2023-04-17T08:16:11.698Z,12.73
2023-04-17T08:17:11.688Z,12.64
2023-04-17T08:18:11.631Z,12.62
2023-04-17T08:19:11.667Z,12.57
2023-04-17T08:20:11.522Z,12.62
2023-04-17T08:21:11.482Z,12.58
2023-04-17T08:22:11.450Z,12.61
2023-04-17T08:23:11.406Z,12.64
2023-04-17T08:24:11.362Z,12.57
2023-04-17T08:25:11.380Z,12.73
2023-04-17T08:26:11.295Z,12.73
2023-04-17T08:27:11.292Z,12.67
2023-04-17T08:28:11.227Z,12.78
2023-04-17T08:29:11.629Z,12.76
2023-04-17T08:30:13.028Z,12.85
2023-04-17T08:31:11.158Z,12.79
2023-04-17T08:32:15.255Z,12.85
2023-04-17T08:33:11.048Z,12.91
2023-04-17T08:34:14.751Z,12.94
2023-04-17T08:35:11.006Z,12.90
2023-04-17T08:36:11.050Z,13.00
2023-04-17T08:37:10.917Z,13.03
2023-04-17T08:38:10.873Z,13.08
2023-04-17T08:39:11.190Z,13.19
2023-04-17T08:40:10.829Z,12.95
2023-04-17T08:41:10.771Z,12.80
2023-04-17T08:42:13.286Z,13.03
2023-04-17T08:43:10.702Z,13.08
2023-04-17T08:44:10.678Z,13.04
2023-04-17T08:45:10.658Z,13.03
2023-04-17T08:46:10.646Z,12.94
2023-04-17T08:47:10.564Z,13.01
2023-04-17T08:48:10.531Z,13.08
2023-04-17T08:49:10.900Z,13.16
2023-04-17T08:50:10.455Z,13.12
2023-04-17T08:51:10.422Z,13.15
2023-04-17T08:52:10.381Z,13.08
2023-04-17T08:53:10.346Z,13.00
2023-04-17T08:54:10.313Z,12.97
2023-04-17T08:55:10.280Z,13.03
2023-04-17T08:56:10.244Z,13.00
2023-04-17T08:57:10.210Z,13.11
2023-04-17T08:58:10.173Z,13.05
2023-04-17T08:59:10.254Z,13.12
2023-04-17T09:00:10.103Z,13.16
2023-04-17T09:01:10.145Z,13.15
2023-04-17T09:02:10.107Z,13.20
2023-04-17T09:03:10.132Z,13.20
2023-04-17T09:04:10.195Z,13.27
2023-04-17T09:05:09.925Z,13.22
2023-04-17T09:06:09.892Z,13.18
2023-04-17T09:07:09.971Z,13.31
2023-04-17T09:08:09.834Z,13.33
2023-04-17T09:09:09.967Z,13.30
2023-04-17T09:10:09.761Z,13.33
2023-04-17T09:11:09.724Z,13.16
2023-04-17T09:12:09.692Z,13.20
2023-04-17T09:13:09.655Z,13.31
2023-04-17T09:14:09.616Z,13.38
2023-04-17T09:15:09.582Z,13.28
2023-04-17T09:16:09.590Z,13.47
2023-04-17T09:17:09.511Z,13.54
2023-04-17T09:18:09.506Z,13.54
2023-04-17T09:19:09.580Z,13.54
2023-04-17T09:20:09.492Z,13.62
2023-04-17T09:21:09.372Z,13.63
2023-04-17T09:22:09.339Z,13.60
2023-04-17T09:23:09.315Z,13.50
2023-04-17T09:24:09.270Z,13.59
2023-04-17T09:25:09.233Z,13.52
2023-04-17T09:26:09.237Z,13.42
2023-04-17T09:27:09.168Z,13.46
2023-04-17T09:28:09.133Z,13.60
2023-04-17T09:29:09.431Z,13.53
2023-04-17T09:30:09.076Z,13.60
2023-04-17T09:31:09.888Z,13.54
2023-04-17T09:32:08.998Z,13.62
2023-04-17T09:33:08.969Z,13.60
2023-04-17T09:34:08.918Z,13.67
2023-04-17T09:35:08.915Z,13.63
2023-04-17T09:36:08.852Z,13.60
2023-04-17T09:37:08.816Z,13.75
2023-04-17T09:38:08.819Z,13.65
2023-04-17T09:39:08.772Z,13.77
2023-04-17T09:40:08.721Z,13.85
2023-04-17T09:41:08.695Z,13.87
2023-04-17T09:42:08.647Z,13.95
2023-04-17T09:43:09.914Z,13.72
2023-04-17T09:44:08.577Z,13.83
2023-04-17T09:45:08.546Z,13.75
2023-04-17T09:46:08.530Z,13.74
2023-04-17T09:47:08.540Z,13.79
2023-04-17T09:48:08.537Z,13.77
2023-04-17T09:49:08.406Z,13.78
2023-04-17T09:50:08.376Z,13.92
2023-04-17T09:51:08.341Z,13.93
2023-04-17T09:52:08.341Z,14.07
2023-04-17T09:53:08.324Z,13.99
2023-04-17T09:54:08.254Z,14.04
2023-04-17T09:55:08.200Z,14.17
2023-04-17T09:56:08.170Z,14.32
2023-04-17T09:57:08.137Z,14.40
2023-04-17T09:58:08.176Z,14.50
2023-04-17T09:59:08.071Z,14.54
2023-04-17T10:00:08.031Z,14.58
2023-04-17T10:01:08.014Z,14.54
2023-04-17T10:02:08.104Z,14.50
2023-04-17T10:03:08.254Z,14.11
2023-04-17T10:04:08.050Z,14.28
2023-04-17T10:05:07.853Z,14.28
2023-04-17T10:06:07.842Z,14.41
2023-04-17T10:07:07.783Z,14.37
2023-04-17T10:08:07.746Z,14.26
2023-04-17T10:09:07.713Z,14.36
2023-04-17T10:10:07.679Z,14.51
2023-04-17T10:11:07.674Z,14.36
2023-04-17T10:12:07.624Z,14.45
2023-04-17T10:13:07.594Z,14.55
2023-04-17T10:14:07.542Z,14.50
2023-04-17T10:15:07.505Z,14.50
2023-04-17T10:16:07.529Z,14.50
2023-04-17T10:17:07.445Z,14.65
2023-04-17T10:18:07.435Z,14.69
2023-04-17T10:19:07.374Z,14.72
2023-04-17T10:20:07.341Z,14.70
2023-04-17T10:21:07.936Z,14.89
2023-04-17T10:22:07.271Z,14.99
2023-04-17T10:23:07.249Z,14.99
2023-04-17T10:24:07.221Z,15.17
2023-04-17T10:25:07.292Z,15.22
2023-04-17T10:26:07.150Z,15.28
2023-04-17T10:27:08.198Z,15.28
2023-04-17T10:28:07.068Z,15.29
2023-04-17T10:29:07.112Z,15.37
2023-04-17T10:30:07.036Z,15.42
2023-04-17T10:31:06.977Z,15.40
2023-04-17T10:32:06.955Z,15.43
2023-04-17T10:33:08.481Z,15.51
2023-04-17T10:34:06.874Z,15.40
2023-04-17T10:35:06.840Z,15.25
2023-04-17T10:36:06.802Z,15.28
2023-04-17T10:37:06.778Z,15.47
2023-04-17T10:38:06.749Z,15.51
2023-04-17T10:39:06.702Z,15.43
2023-04-17T10:40:06.680Z,15.52
2023-04-17T10:41:06.639Z,15.82
2023-04-17T10:42:06.616Z,15.95
2023-04-17T10:43:06.584Z,16.13
2023-04-17T10:44:06.552Z,16.29
2023-04-17T10:45:06.510Z,16.50
2023-04-17T10:46:06.628Z,16.51
2023-04-17T10:47:06.453Z,16.47
2023-04-17T10:48:06.583Z,16.60
2023-04-17T10:49:06.374Z,16.61
2023-04-17T10:50:06.344Z,16.33
2023-04-17T10:51:06.313Z,16.29
2023-04-17T10:52:06.286Z,16.31
2023-04-17T10:53:06.265Z,16.24
2023-04-17T10:54:06.341Z,16.31
2023-04-17T10:55:06.189Z,16.28
2023-04-17T10:56:06.152Z,16.32
2023-04-17T10:57:06.118Z,16.26
2023-04-17T10:58:06.090Z,16.10
2023-04-17T10:59:06.104Z,16.31
2023-04-17T11:00:06.021Z,16.15
2023-04-17T11:01:06.021Z,16.41
2023-04-17T11:02:06.015Z,16.38
2023-04-17T11:03:06.219Z,16.49
2023-04-17T11:04:05.902Z,16.72
2023-04-17T11:05:06.030Z,16.93
2023-04-17T11:06:05.850Z,16.89
2023-04-17T11:07:05.796Z,16.89
2023-04-17T11:08:05.780Z,17.02
2023-04-17T11:09:05.738Z,17.19
2023-04-17T11:10:05.699Z,17.38
2023-04-17T11:11:05.665Z,17.51
2023-04-17T11:12:05.634Z,17.67
2023-04-17T11:13:05.611Z,17.83
2023-04-17T11:14:05.575Z,17.95
2023-04-17T11:15:05.564Z,18.13
2023-04-17T11:16:05.509Z,18.28
2023-04-17T11:17:05.508Z,18.34
2023-04-17T11:18:05.552Z,18.26
2023-04-17T11:19:05.426Z,18.23
2023-04-17T11:20:05.412Z,18.25
2023-04-17T11:21:05.363Z,18.47
2023-04-17T11:22:05.327Z,18.55
2023-04-17T11:23:05.299Z,18.59
2023-04-17T11:24:05.270Z,18.88
2023-04-17T11:25:05.235Z,18.95
2023-04-17T11:26:05.217Z,19.24
2023-04-17T11:27:05.167Z,19.24
2023-04-17T11:28:05.150Z,19.26
2023-04-17T11:29:05.116Z,19.22
2023-04-17T11:30:05.100Z,19.39
2023-04-17T11:31:05.097Z,19.44
2023-04-17T11:32:05.035Z,19.54
2023-04-17T11:33:05.134Z,19.64
2023-04-17T11:34:04.965Z,19.31
2023-04-17T11:35:04.932Z,19.39
2023-04-17T11:36:04.906Z,19.22
2023-04-17T11:37:04.874Z,19.34
2023-04-17T11:38:04.837Z,19.40
2023-04-17T11:39:05.053Z,19.47
2023-04-17T11:40:04.789Z,19.58
2023-04-17T11:41:04.758Z,19.54
2023-04-17T11:42:04.741Z,19.66
2023-04-17T11:43:04.706Z,19.73
2023-04-17T11:44:04.676Z,19.64
2023-04-17T11:45:04.929Z,19.74
2023-04-17T11:46:04.650Z,19.85
2023-04-17T11:47:04.583Z,19.89
2023-04-17T11:48:04.589Z,20.09
2023-04-17T11:49:04.534Z,20.09
2023-04-17T11:50:04.486Z,20.09
2023-04-17T11:51:04.484Z,20.18
2023-04-17T11:52:04.478Z,20.18
2023-04-17T11:53:04.402Z,19.76
2023-04-17T11:54:04.373Z,19.63
2023-04-17T11:55:04.349Z,19.66
2023-04-17T11:56:04.318Z,19.66
2023-04-17T11:57:04.292Z,19.99
2023-04-17T11:58:04.260Z,20.10
2023-04-17T11:59:04.224Z,20.43
2023-04-17T12:00:04.199Z,20.60
2023-04-17T12:01:04.173Z,20.22
2023-04-17T12:02:04.263Z,20.13
2023-04-17T12:03:04.221Z,20.25
2023-04-17T12:04:04.278Z,20.55
2023-04-17T12:05:04.178Z,20.59
2023-04-17T12:06:04.027Z,20.34
2023-04-17T12:07:04.017Z,20.51
2023-04-17T12:08:03.966Z,20.66
2023-04-17T12:09:03.943Z,20.56
2023-04-17T12:10:03.906Z,20.66
2023-04-17T12:11:03.884Z,20.34
2023-04-17T12:12:03.905Z,20.09
2023-04-17T12:13:03.823Z,20.11
2023-04-17T12:14:03.796Z,20.19
2023-04-17T12:15:03.771Z,20.52
2023-04-17T12:16:03.754Z,20.72
2023-04-17T12:17:03.703Z,20.96
2023-04-17T12:18:03.697Z,20.78
2023-04-17T12:19:03.653Z,20.44
2023-04-17T12:20:03.618Z,19.95
2023-04-17T12:21:03.590Z,19.63
2023-04-17T12:22:03.561Z,19.58
2023-04-17T12:23:03.547Z,19.52
2023-04-17T12:24:03.499Z,19.45
2023-04-17T12:25:03.489Z,19.64
2023-04-17T12:26:03.454Z,19.47
2023-04-17T12:27:03.415Z,19.79
2023-04-17T12:28:03.391Z,20.09
2023-04-17T12:29:03.368Z,20.10
2023-04-17T12:30:03.325Z,20.07
2023-04-17T12:31:03.298Z,20.10
2023-04-17T12:32:03.436Z,20.16
2023-04-17T12:33:03.268Z,19.85
2023-04-17T12:34:03.203Z,20.00
2023-04-17T12:35:03.188Z,20.32
2023-04-17T12:36:03.206Z,20.43
2023-04-17T12:37:03.128Z,20.52
2023-04-17T12:38:03.084Z,20.34
2023-04-17T12:39:03.075Z,20.41
2023-04-17T12:40:03.038Z,20.75
2023-04-17T12:41:03.010Z,20.97
2023-04-17T12:42:02.972Z,21.09
2023-04-17T12:43:02.952Z,21.09
2023-04-17T12:44:02.919Z,21.18
2023-04-17T12:45:02.906Z,21.00
2023-04-17T12:46:02.920Z,21.02
2023-04-17T12:47:02.847Z,20.96
2023-04-17T12:48:02.818Z,21.12
2023-04-17T12:49:02.786Z,21.09
2023-04-17T12:50:02.747Z,20.60
2023-04-17T12:51:02.728Z,20.06
2023-04-17T12:52:03.826Z,20.09